map of NOC home
NOC - Airport
Location
City:  Knock, County Mayo, Connacht, Ireland
Near (Alt.):Connaught
Name:Ireland West Airport Knock
Old (Alt.):Knock International Airport
ICAO:EIKN
IATA:NOC

Details
Type:Airport (Aerodrome, Airfield)
Use:International (customs port of entry)
Latitude:5354'37"N (53.910297)
Longitude:849'07"W (-8.818491)
Elevation:665 ft (203 m)
Variation:4.07W (WMM2015 magnetic declination)
0.17 annual change
Runways:1
Longest:7546 × 148 ft (2300 × 45 m), paved

Time
Time Zone:UTC+0 (DST+1)
Local Time:

Weather
METAR:EIKN 220500Z 28004KT 9999 FEW020 06/06 Q1035 NOSIG
TAF:EIKN 212300Z 2200/2224 33006KT 9999 FEW040

Related Locations
Nearby:
Farthest:SZS: 11927 mi / 19195 km
Ryan's Creek, Stewart Island, STL, NZ

Find:

   beyond  
but within

Other Information
Maps:
NOTAMs:
Links:
Sources:

  
  • flag of Ireland
  • flag of Connacht
  

Sectional Chart

Flight Planning
at skyvector.com

Satellite Image

Google Maps Satellite view

 

Copyright © 2004-2018 Karl L. Swartz. All rights reserved.
The Great Circle Mapper name and logo are trademarks of the Great Circle Mapper.
All other trademarks mentioned herein belong to their respective owners.
Please see credits for attibutions and further copyright information.

  Follow gcmap on Facebook Follow gcmap on Twitter Follow gcmap on Google+ GCmap on LinkedIn

hCard Microformat

Geo Microformat